Capitan Sarmiento, Argentina
Current Conditions -  °F | °C
As of 2:00 PM on Thursday 30 Oct 2014 (Local Time) from SADF Reporting Station
Scattered Clouds Scattered Clouds  
Wind Chill: 77°   Ceiling: Unl
Heat Index: 79°   Visibility: 6mi
Dew Point: 55°   Wind: 0mph
Humidity: 47%   Direction: NA
Pressure: 29.83"   Gusts: NA
Location:  34.17°S, 59.8°W
Report Text: SADF 301700Z 00000KT 9999 FEW025 SCT20025/13 Q1010
Loading
Personal Weather Stations






























Interactive Weather Map
Tropical Storm Tracking
New forecast layout! Learn more

10-Day Weather Forecast

Advertisements
Track Severe Weather on mobile